createdAt,value
2018-05-21T00:00:43.428Z,14.16
2018-05-21T00:03:10.934Z,14.14
2018-05-21T00:05:38.391Z,14.10
2018-05-21T00:08:05.837Z,14.07
2018-05-21T00:10:33.253Z,14.05
2018-05-21T00:13:00.664Z,14.02
2018-05-21T00:15:28.100Z,14.01
2018-05-21T00:17:55.506Z,14.00
2018-05-21T00:20:22.985Z,13.98
2018-05-21T00:22:50.413Z,13.90
2018-05-21T00:25:17.860Z,13.82
2018-05-21T00:27:45.301Z,13.77
2018-05-21T00:30:12.736Z,13.66
2018-05-21T00:32:40.145Z,13.58
2018-05-21T00:35:07.596Z,13.55
2018-05-21T00:37:35.032Z,13.54
2018-05-21T00:40:02.445Z,13.50
2018-05-21T00:42:29.866Z,13.46
2018-05-21T00:44:57.428Z,13.40
2018-05-21T00:47:24.841Z,13.34
2018-05-21T00:49:52.247Z,13.30
2018-05-21T00:52:19.665Z,13.23
2018-05-21T00:54:59.005Z,13.19
2018-05-21T00:57:26.419Z,13.15
2018-05-21T00:59:53.832Z,13.11
2018-05-21T01:02:21.241Z,13.10
2018-05-21T01:04:48.656Z,13.11
2018-05-21T01:07:16.089Z,13.10
2018-05-21T01:09:43.520Z,13.08
2018-05-21T01:12:10.920Z,13.02
2018-05-21T01:14:38.538Z,12.96
2018-05-21T01:17:05.933Z,12.85
2018-05-21T01:19:33.382Z,12.77
2018-05-21T01:22:00.804Z,12.74
2018-05-21T01:24:28.226Z,12.72
2018-05-21T01:26:55.665Z,12.71
2018-05-21T01:29:23.108Z,12.70
2018-05-21T01:31:50.516Z,12.68
2018-05-21T01:34:17.943Z,12.67
2018-05-21T01:36:45.372Z,12.60
2018-05-21T01:39:12.780Z,12.59
2018-05-21T01:41:40.360Z,12.62
2018-05-21T01:44:07.776Z,12.59
2018-05-21T01:46:35.195Z,12.59
2018-05-21T01:49:02.618Z,12.59
2018-05-21T01:51:30.046Z,12.52
2018-05-21T01:53:57.452Z,12.48
2018-05-21T01:56:24.887Z,12.43
2018-05-21T01:58:52.288Z,12.40
2018-05-21T02:01:19.721Z,12.39
2018-05-21T02:03:47.121Z,12.39
2018-05-21T02:06:14.539Z,12.38
2018-05-21T02:08:41.968Z,12.36
2018-05-21T02:11:09.340Z,12.34
2018-05-21T02:13:36.772Z,12.31
2018-05-21T02:16:04.176Z,12.29
2018-05-21T02:18:31.594Z,12.28
2018-05-21T02:20:59.011Z,12.28
2018-05-21T02:23:26.764Z,12.26
2018-05-21T02:25:54.179Z,12.23
2018-05-21T02:28:21.602Z,12.16
2018-05-21T02:30:49.012Z,12.09
2018-05-21T02:33:16.427Z,12.06
2018-05-21T02:35:43.842Z,12.02
2018-05-21T02:38:11.241Z,11.96
2018-05-21T02:40:38.667Z,11.91
2018-05-21T02:43:06.091Z,11.88
2018-05-21T02:45:35.450Z,11.84
2018-05-21T02:48:02.882Z,11.81
2018-05-21T02:50:30.279Z,11.77
2018-05-21T02:52:57.724Z,11.73
2018-05-21T02:55:25.149Z,11.71
2018-05-21T02:57:52.565Z,11.67
2018-05-21T03:00:19.988Z,11.65
2018-05-21T03:02:47.404Z,11.63
2018-05-21T03:05:14.974Z,11.58
2018-05-21T03:07:42.389Z,11.52
2018-05-21T03:10:09.820Z,11.50
2018-05-21T03:12:37.229Z,11.50
2018-05-21T03:15:04.658Z,11.50
2018-05-21T03:17:32.065Z,11.48
2018-05-21T03:19:59.509Z,11.44
2018-05-21T03:22:26.921Z,11.40
2018-05-21T03:24:54.327Z,11.39
2018-05-21T03:27:21.756Z,11.37
2018-05-21T03:29:49.218Z,11.36
2018-05-21T03:32:16.636Z,11.34
2018-05-21T03:34:44.040Z,11.33
2018-05-21T03:37:11.463Z,11.32
2018-05-21T03:39:38.891Z,11.29
2018-05-21T03:42:06.357Z,11.25
2018-05-21T03:44:33.752Z,11.21
2018-05-21T03:47:01.160Z,11.19
2018-05-21T03:49:28.600Z,11.19
2018-05-21T03:51:56.000Z,11.23
2018-05-21T03:54:23.583Z,11.27
2018-05-21T03:56:50.990Z,11.30
2018-05-21T03:59:30.278Z,11.31
2018-05-21T04:02:09.353Z,11.36
2018-05-21T04:04:36.784Z,11.44
2018-05-21T04:07:04.198Z,11.46
2018-05-21T04:09:31.615Z,11.51
2018-05-21T04:11:59.114Z,11.57
2018-05-21T04:14:26.460Z,11.61
2018-05-21T04:16:53.874Z,11.69
2018-05-21T04:19:21.283Z,11.75
2018-05-21T04:21:48.696Z,11.76
2018-05-21T04:24:16.123Z,11.82
2018-05-21T04:26:43.524Z,11.97
2018-05-21T04:29:10.952Z,12.29
2018-05-21T04:31:38.353Z,13.19
2018-05-21T04:34:05.771Z,14.38
2018-05-21T04:36:33.293Z,15.52
2018-05-21T04:39:00.638Z,16.62
2018-05-21T04:41:28.047Z,17.68
2018-05-21T04:43:55.476Z,18.75
2018-05-21T04:46:22.881Z,19.74
2018-05-21T04:48:50.410Z,20.62
2018-05-21T04:51:17.812Z,21.33
2018-05-21T04:53:45.233Z,21.95
2018-05-21T04:56:12.656Z,22.44
2018-05-21T04:58:40.059Z,22.76
2018-05-21T05:01:07.489Z,23.03
2018-05-21T05:03:34.888Z,23.28
2018-05-21T05:06:02.313Z,23.56
2018-05-21T05:08:29.720Z,23.92
2018-05-21T05:10:57.153Z,24.20
2018-05-21T05:13:24.570Z,24.54
2018-05-21T05:15:52.013Z,24.78
2018-05-21T05:18:19.441Z,25.14
2018-05-21T05:20:46.866Z,25.60
2018-05-21T05:23:14.632Z,26.03
2018-05-21T05:25:42.044Z,26.51
2018-05-21T05:28:09.466Z,27.00
2018-05-21T05:30:36.880Z,27.14
2018-05-21T05:33:04.326Z,27.48
2018-05-21T05:35:31.735Z,27.76
2018-05-21T05:37:59.164Z,28.21
2018-05-21T05:40:26.608Z,28.60
2018-05-21T05:42:54.036Z,28.73
2018-05-21T05:45:21.452Z,28.81
2018-05-21T05:47:48.921Z,28.71
2018-05-21T05:50:16.336Z,28.64
2018-05-21T05:52:43.747Z,28.49
2018-05-21T05:55:11.164Z,28.39
2018-05-21T05:57:38.586Z,28.32
2018-05-21T06:00:06.358Z,28.34
2018-05-21T06:02:33.784Z,28.19
2018-05-21T06:05:01.197Z,28.55
2018-05-21T06:07:28.628Z,28.61
2018-05-21T06:09:56.032Z,28.71
2018-05-21T06:12:23.482Z,28.64
2018-05-21T06:14:50.952Z,28.45
2018-05-21T06:17:18.375Z,28.50
2018-05-21T06:19:45.783Z,28.74
2018-05-21T06:22:13.203Z,28.76
2018-05-21T06:24:40.628Z,28.25
2018-05-21T06:27:08.104Z,27.20
2018-05-21T06:29:35.528Z,26.66
2018-05-21T06:32:02.948Z,26.60
2018-05-21T06:34:30.434Z,26.53
2018-05-21T06:36:57.781Z,25.62
2018-05-21T06:39:25.212Z,25.53
2018-05-21T06:41:52.610Z,25.62
2018-05-21T06:44:20.095Z,25.55
2018-05-21T06:46:47.507Z,25.52
2018-05-21T06:49:15.110Z,25.69
2018-05-21T06:51:42.527Z,25.89
2018-05-21T06:54:10.928Z,25.99
2018-05-21T06:56:38.361Z,25.96
2018-05-21T06:59:05.802Z,25.59
2018-05-21T07:01:33.217Z,25.14
2018-05-21T07:04:00.636Z,24.93
2018-05-21T07:06:28.282Z,24.58
2018-05-21T07:08:55.702Z,24.83
2018-05-21T07:11:23.095Z,25.21
2018-05-21T07:13:50.524Z,25.53
2018-05-21T07:16:17.968Z,25.96
2018-05-21T07:18:45.371Z,25.98
2018-05-21T07:21:12.783Z,26.23
2018-05-21T07:23:40.208Z,25.96
2018-05-21T07:26:07.641Z,26.26
2018-05-21T07:28:35.056Z,26.12
2018-05-21T07:33:53.257Z,26.27
2018-05-21T07:36:20.748Z,26.51
2018-05-21T07:41:50.933Z,26.61
2018-05-21T07:44:18.349Z,26.19
2018-05-21T07:46:45.764Z,26.40
2018-05-21T07:49:13.516Z,26.30
2018-05-21T07:51:40.979Z,26.45
2018-05-21T07:54:08.336Z,26.59
2018-05-21T07:56:35.764Z,26.55
2018-05-21T07:59:03.177Z,26.53
2018-05-21T08:01:30.601Z,26.88
2018-05-21T08:03:58.024Z,26.97
2018-05-21T08:06:25.424Z,26.83
2018-05-21T08:08:52.848Z,26.92
2018-05-21T08:11:20.418Z,27.19
2018-05-21T08:13:47.827Z,27.05
2018-05-21T08:16:15.237Z,27.02
2018-05-21T08:18:42.669Z,26.71
2018-05-21T08:21:10.075Z,26.60
2018-05-21T08:23:37.833Z,26.54
2018-05-21T08:26:05.420Z,26.75
2018-05-21T08:28:32.824Z,26.27
2018-05-21T08:31:00.262Z,25.86
2018-05-21T08:33:27.664Z,25.68
2018-05-21T08:35:55.347Z,25.78
2018-05-21T08:38:22.751Z,25.56
2018-05-21T08:40:50.165Z,25.94
2018-05-21T08:43:17.604Z,25.90
2018-05-21T08:45:44.995Z,25.85
2018-05-21T08:48:12.417Z,26.10
2018-05-21T08:50:39.828Z,26.23
2018-05-21T08:53:07.253Z,26.15
2018-05-21T08:55:34.666Z,25.96
2018-05-21T08:58:02.097Z,25.99
2018-05-21T09:00:29.568Z,26.02
2018-05-21T09:02:56.926Z,25.91
2018-05-21T09:05:24.361Z,26.10
2018-05-21T09:07:51.775Z,26.15
2018-05-21T09:10:19.191Z,25.98
2018-05-21T09:12:46.621Z,25.99
2018-05-21T09:15:14.031Z,25.88
2018-05-21T09:17:41.458Z,26.02
2018-05-21T09:20:08.891Z,26.12
2018-05-21T09:22:36.360Z,26.22
2018-05-21T09:25:04.156Z,26.33
2018-05-21T09:27:31.565Z,26.34
2018-05-21T09:29:58.963Z,26.68
2018-05-21T09:32:26.482Z,26.86
2018-05-21T09:34:53.829Z,27.01
2018-05-21T09:37:21.266Z,26.83
2018-05-21T09:39:48.675Z,27.11
2018-05-21T09:42:16.118Z,27.24
2018-05-21T09:44:43.530Z,27.08
2018-05-21T09:47:10.948Z,27.06
2018-05-21T09:49:38.356Z,27.16
2018-05-21T09:52:05.867Z,27.37
2018-05-21T09:54:33.284Z,27.07
2018-05-21T09:57:00.705Z,27.17
2018-05-21T09:59:28.135Z,27.09
2018-05-21T10:01:55.536Z,26.43
2018-05-21T10:04:22.965Z,25.77
2018-05-21T10:06:50.402Z,25.46
2018-05-21T10:09:17.816Z,25.22
2018-05-21T10:11:45.294Z,25.20
2018-05-21T10:14:12.709Z,25.19
2018-05-21T10:16:40.131Z,25.13
2018-05-21T10:19:07.608Z,24.91
2018-05-21T10:21:35.038Z,24.63
2018-05-21T10:24:02.479Z,24.44
2018-05-21T10:26:29.898Z,24.36
2018-05-21T10:28:57.368Z,24.26
2018-05-21T10:31:24.796Z,24.31
2018-05-21T10:33:52.276Z,23.99
2018-05-21T10:36:19.793Z,23.72
2018-05-21T10:38:47.203Z,23.71
2018-05-21T10:41:15.160Z,23.73
2018-05-21T10:43:42.669Z,23.67
2018-05-21T10:46:10.032Z,23.80
2018-05-21T10:48:37.448Z,23.82
2018-05-21T10:51:04.863Z,23.84
2018-05-21T10:53:32.313Z,23.92
2018-05-21T10:55:59.744Z,23.88
2018-05-21T10:58:27.177Z,23.86
2018-05-21T11:00:54.620Z,23.81
2018-05-21T11:03:22.039Z,23.85
2018-05-21T11:05:49.454Z,23.84
2018-05-21T11:08:16.898Z,23.81
2018-05-21T11:10:44.314Z,23.75
2018-05-21T11:13:11.752Z,23.64
2018-05-21T11:15:39.171Z,23.81
2018-05-21T11:18:06.634Z,23.86
2018-05-21T11:20:34.056Z,24.08
2018-05-21T11:23:01.481Z,24.01
2018-05-21T11:25:28.912Z,24.13
2018-05-21T11:27:56.325Z,24.24
2018-05-21T11:30:23.762Z,24.24
2018-05-21T11:32:51.195Z,24.19
2018-05-21T11:35:18.646Z,24.23
2018-05-21T11:37:46.057Z,24.28
2018-05-21T11:40:13.469Z,24.23
2018-05-21T11:42:40.917Z,24.32
2018-05-21T11:45:08.332Z,24.32
2018-05-21T11:47:35.882Z,24.34
2018-05-21T11:50:03.299Z,24.46
2018-05-21T11:52:30.787Z,24.30
2018-05-21T11:54:58.176Z,24.34
2018-05-21T11:57:25.620Z,24.38
2018-05-21T11:59:53.033Z,24.39
2018-05-21T12:02:20.465Z,24.56
2018-05-21T12:04:47.888Z,24.51
2018-05-21T12:07:15.329Z,24.58
2018-05-21T12:09:43.173Z,24.70
2018-05-21T12:12:11.784Z,24.66
2018-05-21T12:14:39.377Z,24.63
2018-05-21T12:17:06.830Z,24.68
2018-05-21T12:19:34.252Z,24.79
2018-05-21T12:22:01.687Z,24.79
2018-05-21T12:24:29.140Z,24.73
2018-05-21T12:26:56.572Z,24.73
2018-05-21T12:29:24.003Z,24.62
2018-05-21T12:31:51.436Z,24.66
2018-05-21T12:34:18.892Z,24.61
2018-05-21T12:36:46.329Z,24.53
2018-05-21T12:39:13.768Z,24.49
2018-05-21T12:41:41.212Z,24.50
2018-05-21T12:44:08.646Z,24.70
2018-05-21T12:46:36.088Z,24.86
2018-05-21T12:49:03.524Z,24.81
2018-05-21T12:51:30.959Z,24.83
2018-05-21T12:53:58.371Z,24.79
2018-05-21T12:56:26.569Z,24.79
2018-05-21T12:58:53.990Z,24.75
2018-05-21T13:01:21.388Z,24.84
2018-05-21T13:03:48.836Z,24.85
2018-05-21T13:06:16.240Z,24.85
2018-05-21T13:08:43.673Z,24.87
2018-05-21T13:11:11.094Z,24.94
2018-05-21T13:13:38.531Z,25.02
2018-05-21T13:16:05.940Z,24.90
2018-05-21T13:18:33.361Z,24.78
2018-05-21T13:21:00.800Z,24.81
2018-05-21T13:23:28.229Z,24.84
2018-05-21T13:25:55.673Z,24.90
2018-05-21T13:28:23.077Z,24.96
2018-05-21T13:30:50.681Z,24.93
2018-05-21T13:33:18.101Z,24.95
2018-05-21T13:35:45.540Z,25.02
2018-05-21T13:38:12.967Z,24.89
2018-05-21T13:40:40.392Z,24.87
2018-05-21T13:43:08.186Z,24.84
2018-05-21T13:45:35.532Z,24.89
2018-05-21T13:48:02.941Z,24.94
2018-05-21T13:50:30.379Z,24.98
2018-05-21T13:52:57.778Z,24.99
2018-05-21T13:55:25.237Z,24.96
2018-05-21T13:57:52.640Z,25.12
2018-05-21T14:00:20.076Z,25.15
2018-05-21T14:02:47.506Z,25.25
2018-05-21T14:05:14.927Z,25.22
2018-05-21T14:07:42.368Z,25.15
2018-05-21T14:10:09.783Z,25.05
2018-05-21T14:12:37.528Z,25.01
2018-05-21T14:15:04.860Z,25.08
2018-05-21T14:17:32.267Z,25.15
2018-05-21T14:19:59.714Z,25.11
2018-05-21T14:22:27.136Z,25.09
2018-05-21T14:24:54.559Z,25.17
2018-05-21T14:27:21.975Z,25.18
2018-05-21T14:29:49.486Z,25.24
2018-05-21T14:32:16.861Z,25.28
2018-05-21T14:34:44.295Z,25.31
2018-05-21T14:37:11.725Z,25.22
2018-05-21T14:39:39.137Z,25.18
2018-05-21T14:42:06.569Z,25.31
2018-05-21T14:44:33.987Z,25.35
2018-05-21T14:47:01.413Z,25.35
2018-05-21T14:49:28.835Z,25.36
2018-05-21T14:51:56.256Z,25.38
2018-05-21T14:54:23.693Z,25.46
2018-05-21T14:56:51.117Z,25.45
2018-05-21T14:59:18.561Z,25.40
2018-05-21T15:01:46.005Z,25.47
2018-05-21T15:04:13.411Z,25.49
2018-05-21T15:06:40.857Z,25.50
2018-05-21T15:09:08.280Z,25.55
2018-05-21T15:11:35.708Z,25.58
2018-05-21T15:14:03.918Z,25.58
2018-05-21T15:16:31.328Z,25.63
2018-05-21T15:18:58.784Z,25.58
2018-05-21T15:21:26.196Z,25.46
2018-05-21T15:23:53.616Z,25.47
2018-05-21T15:26:21.031Z,25.35
2018-05-21T15:28:48.743Z,25.31
2018-05-21T15:31:16.156Z,25.45
2018-05-21T15:33:43.572Z,25.46
2018-05-21T15:36:11.336Z,25.51
2018-05-21T15:38:38.741Z,25.57
2018-05-21T15:41:06.314Z,25.56
2018-05-21T15:43:33.714Z,25.45
2018-05-21T15:46:01.139Z,25.32
2018-05-21T15:48:28.552Z,25.35
2018-05-21T15:50:55.967Z,25.32
2018-05-21T15:53:23.399Z,25.35
2018-05-21T15:55:50.831Z,25.35
2018-05-21T15:58:18.239Z,25.38
2018-05-21T16:00:45.677Z,25.28
2018-05-21T16:03:13.119Z,25.30
2018-05-21T16:05:40.647Z,25.28
2018-05-21T16:08:08.060Z,25.22
2018-05-21T16:10:35.512Z,25.19
2018-05-21T16:13:02.962Z,25.22
2018-05-21T16:15:30.363Z,25.26
2018-05-21T16:17:57.936Z,25.24
2018-05-21T16:20:25.199Z,25.29
2018-05-21T16:22:52.615Z,25.28
2018-05-21T16:25:20.077Z,25.17
2018-05-21T16:27:47.512Z,25.20
2018-05-21T16:30:14.969Z,25.20
2018-05-21T16:32:42.340Z,25.21
2018-05-21T16:35:09.772Z,25.19
2018-05-21T16:37:37.185Z,25.17
2018-05-21T16:40:04.991Z,25.20
2018-05-21T16:42:32.421Z,25.09
2018-05-21T16:44:59.828Z,25.11
2018-05-21T16:47:27.311Z,25.07
2018-05-21T16:49:54.726Z,25.03
2018-05-21T16:52:23.041Z,24.99
2018-05-21T16:54:50.484Z,25.02
2018-05-21T16:57:17.980Z,24.99
2018-05-21T16:59:45.433Z,24.95
2018-05-21T17:02:12.930Z,24.96
2018-05-21T17:04:40.605Z,24.90
2018-05-21T17:07:08.203Z,24.92
2018-05-21T17:09:35.706Z,24.87
2018-05-21T17:12:03.148Z,24.80
2018-05-21T17:14:30.632Z,24.82
2018-05-21T17:16:58.084Z,24.82
2018-05-21T17:19:25.524Z,24.73
2018-05-21T17:21:52.948Z,24.75
2018-05-21T17:24:20.413Z,24.75
2018-05-21T17:26:47.833Z,24.75
2018-05-21T17:29:15.284Z,24.74
2018-05-21T17:31:42.701Z,24.68
2018-05-21T17:34:10.176Z,24.64
2018-05-21T17:36:42.181Z,24.57
2018-05-21T17:39:09.681Z,24.56
2018-05-21T17:41:37.122Z,24.53
2018-05-21T17:44:04.564Z,24.54
2018-05-21T17:46:31.984Z,24.49
2018-05-21T17:48:59.418Z,24.43
2018-05-21T17:51:26.891Z,24.45
2018-05-21T17:53:54.351Z,24.42
2018-05-21T17:56:21.763Z,24.39
2018-05-21T17:58:49.310Z,24.30
2018-05-21T18:01:16.739Z,24.25
2018-05-21T18:03:44.249Z,24.23
2018-05-21T18:06:11.977Z,24.15
2018-05-21T18:08:39.401Z,24.13
2018-05-21T18:11:06.925Z,24.06
2018-05-21T18:13:34.360Z,24.02
2018-05-21T18:16:01.785Z,23.98
2018-05-21T18:18:29.245Z,23.93
2018-05-21T18:20:56.675Z,23.84
2018-05-21T18:23:24.144Z,23.79
2018-05-21T18:25:51.904Z,23.76
2018-05-21T18:28:19.410Z,23.70
2018-05-21T18:30:46.836Z,23.60
2018-05-21T18:33:14.275Z,23.52
2018-05-21T18:35:41.822Z,23.47
2018-05-21T18:38:09.258Z,23.39
2018-05-21T18:40:36.667Z,23.38
2018-05-21T18:43:04.091Z,23.27
2018-05-21T18:45:31.512Z,23.24
2018-05-21T18:47:58.949Z,23.14
2018-05-21T18:50:26.361Z,23.06
2018-05-21T18:52:53.819Z,22.99
2018-05-21T18:55:21.243Z,22.92
2018-05-21T18:57:48.671Z,22.85
2018-05-21T19:00:16.089Z,22.77
2018-05-21T19:02:43.809Z,22.70
2018-05-21T19:05:11.235Z,22.63
2018-05-21T19:07:38.641Z,22.55
2018-05-21T19:10:06.118Z,22.50
2018-05-21T19:12:33.547Z,22.41
2018-05-21T19:15:01.023Z,22.34
2018-05-21T19:17:28.456Z,22.31
2018-05-21T19:19:55.890Z,22.22
2018-05-21T19:22:23.342Z,22.11
2018-05-21T19:24:50.778Z,22.05
2018-05-21T19:27:18.184Z,21.95
2018-05-21T19:29:45.600Z,21.92
2018-05-21T19:32:13.012Z,21.85
2018-05-21T19:34:40.432Z,21.81
2018-05-21T19:37:07.980Z,21.73
2018-05-21T19:39:35.387Z,21.65
2018-05-21T19:42:02.814Z,21.57
2018-05-21T19:44:30.216Z,21.52
2018-05-21T19:46:57.638Z,21.47
2018-05-21T19:49:25.153Z,21.38
2018-05-21T19:51:52.643Z,21.32
2018-05-21T19:54:20.077Z,21.26
2018-05-21T19:56:47.520Z,21.18
2018-05-21T19:59:14.975Z,21.13
2018-05-21T20:01:42.389Z,21.07
2018-05-21T20:04:09.808Z,21.01
2018-05-21T20:06:37.236Z,20.93
2018-05-21T20:09:05.465Z,20.86
2018-05-21T20:11:33.173Z,20.78
2018-05-21T20:14:00.576Z,20.72
2018-05-21T20:16:27.979Z,20.70
2018-05-21T20:18:55.415Z,20.66
2018-05-21T20:21:22.827Z,20.63
2018-05-21T20:23:50.261Z,20.58
2018-05-21T20:26:17.662Z,20.52
2018-05-21T20:28:45.114Z,20.47
2018-05-21T20:31:12.541Z,20.43
2018-05-21T20:33:39.970Z,20.42
2018-05-21T20:36:07.380Z,20.39
2018-05-21T20:38:34.796Z,20.36
2018-05-21T20:41:02.226Z,20.33
2018-05-21T20:43:29.650Z,20.29
2018-05-21T20:45:57.094Z,20.23
2018-05-21T20:48:24.525Z,20.18
2018-05-21T20:50:51.935Z,20.15
2018-05-21T20:53:19.365Z,20.09
2018-05-21T20:55:46.770Z,20.04
2018-05-21T20:58:14.332Z,19.99
2018-05-21T21:00:41.745Z,19.92
2018-05-21T21:03:09.149Z,19.88
2018-05-21T21:05:36.572Z,19.84
2018-05-21T21:08:04.000Z,19.80
2018-05-21T21:10:31.490Z,19.77
2018-05-21T21:12:58.831Z,19.75
2018-05-21T21:15:26.246Z,19.72
2018-05-21T21:17:53.663Z,19.69
2018-05-21T21:20:21.081Z,19.67
2018-05-21T21:22:48.505Z,19.66
2018-05-21T21:25:15.912Z,19.61
2018-05-21T21:27:43.320Z,19.58
2018-05-21T21:30:10.740Z,19.53
2018-05-21T21:32:38.497Z,19.47
2018-05-21T21:35:05.871Z,19.40
2018-05-21T21:37:33.281Z,19.34
2018-05-21T21:40:00.703Z,19.26
2018-05-21T21:42:28.114Z,19.20
2018-05-21T21:44:55.658Z,19.13
2018-05-21T21:47:23.144Z,19.08
2018-05-21T21:49:50.654Z,19.02
2018-05-21T21:52:18.084Z,18.94
2018-05-21T21:54:45.499Z,18.92
2018-05-21T21:57:12.935Z,18.91
2018-05-21T21:59:40.351Z,18.90
2018-05-21T22:02:07.788Z,18.89
2018-05-21T22:04:35.226Z,18.86
2018-05-21T22:07:02.652Z,18.84
2018-05-21T22:09:30.125Z,18.82
2018-05-21T22:11:57.537Z,18.82
2018-05-21T22:14:24.983Z,18.81
2018-05-21T22:16:52.442Z,18.80
2018-05-21T22:19:19.857Z,18.78
2018-05-21T22:21:47.283Z,18.76
2018-05-21T22:24:14.698Z,18.75
2018-05-21T22:26:42.125Z,18.73
2018-05-21T22:29:09.541Z,18.70
2018-05-21T22:31:37.012Z,18.66
2018-05-21T22:34:04.439Z,18.62
2018-05-21T22:36:31.850Z,18.59
2018-05-21T22:38:59.276Z,18.55
2018-05-21T22:41:26.684Z,18.47
2018-05-21T22:43:54.122Z,18.37
2018-05-21T22:46:21.532Z,18.22
2018-05-21T22:48:48.937Z,18.09
2018-05-21T22:51:16.363Z,17.92
2018-05-21T22:53:43.775Z,17.79
2018-05-21T22:56:11.200Z,17.68
2018-05-21T22:58:38.731Z,17.57
2018-05-21T23:01:06.165Z,17.49
2018-05-21T23:03:33.603Z,17.44
2018-05-21T23:06:01.016Z,17.37
2018-05-21T23:08:28.446Z,17.33
2018-05-21T23:10:55.860Z,17.27
2018-05-21T23:13:23.692Z,17.21
2018-05-21T23:15:51.103Z,17.15
2018-05-21T23:18:18.516Z,17.07
2018-05-21T23:20:45.951Z,16.98
2018-05-21T23:23:13.379Z,16.91
2018-05-21T23:25:40.827Z,16.84
2018-05-21T23:28:08.252Z,16.76
2018-05-21T23:30:35.667Z,16.72
2018-05-21T23:33:03.100Z,16.69
2018-05-21T23:35:30.528Z,16.63
2018-05-21T23:37:57.944Z,16.58
2018-05-21T23:40:25.357Z,16.52
2018-05-21T23:42:52.788Z,16.44
2018-05-21T23:45:20.204Z,16.39
2018-05-21T23:47:47.628Z,16.34
2018-05-21T23:50:15.066Z,16.28
2018-05-21T23:52:42.540Z,16.24
2018-05-21T23:55:09.959Z,16.21
2018-05-21T23:57:37.400Z,16.14
